Time;durP1;ratioP1;P1;durP2;ratioP2;P2;SDS_P1;SDS_P2;PMS_P1;PMS_P2;Temp;Humidity;BMP_temperature;BMP_pressure;BME280_temperature;BME280_humidity;BME280_pressure;Samples;Min_cycle;Max_cycle;Signal;HPM_P1;HPM_P2
2022/05/01 00:01:23;;;;;;;12.88;7.32;;;;;;;10.38;48.53;100111.38;5034650;28;20037;-73
2022/05/01 00:03:49;;;;;;;11.98;6.38;;;;;;;10.40;48.37;100109.56;5035127;28;20025;-72
2022/05/01 00:06:14;;;;;;;10.32;6.88;;;;;;;10.37;48.56;100109.69;5034614;28;20465;-72
2022/05/01 00:08:42;;;;;;;8.43;6.90;;;;;;;10.42;48.43;100121.63;5034982;28;20033;-73
2022/05/01 00:11:08;;;;;;;9.88;7.18;;;;;;;10.37;48.42;100113.16;5034691;28;20499;-72
2022/05/01 00:13:34;;;;;;;12.48;6.90;;;;;;;10.41;48.20;100113.88;5034706;28;20028;-73
2022/05/01 00:15:59;;;;;;;10.02;6.78;;;;;;;10.37;48.56;100099.28;5034604;28;20029;-73
2022/05/01 00:18:25;;;;;;;11.60;7.25;;;;;;;10.32;48.52;100103.81;5034505;28;20025;-72
2022/05/01 00:20:50;;;;;;;9.60;6.57;;;;;;;10.33;48.31;100097.72;5034438;28;20075;-72
2022/05/01 00:23:16;;;;;;;9.35;6.88;;;;;;;10.39;47.83;100106.13;5034588;28;20104;-73
2022/05/01 00:25:42;;;;;;;13.02;7.63;;;;;;;10.43;48.18;100101.63;5034253;28;20116;-73
2022/05/01 00:28:09;;;;;;;11.98;7.35;;;;;;;10.43;48.07;100104.25;5034429;28;20029;-73
2022/05/01 00:30:35;;;;;;;15.80;7.80;;;;;;;10.46;48.05;100102.38;5034125;28;20533;-73
2022/05/01 00:38:30;;;;;;;13.13;7.82;;;;;;;10.46;48.58;100098.94;5033946;28;20095;-73
2022/05/01 00:40:56;;;;;;;12.20;7.45;;;;;;;10.48;48.72;100097.94;5034198;28;20021;-73
2022/05/01 00:43:22;;;;;;;9.80;7.18;;;;;;;10.40;48.89;100093.94;5033858;28;20354;-72
2022/05/01 00:45:47;;;;;;;9.90;7.05;;;;;;;10.37;48.83;100086.28;5034019;28;20105;-73
2022/05/01 00:48:13;;;;;;;10.68;7.70;;;;;;;10.37;49.23;100092.31;5034044;28;20474;-72
2022/05/01 00:50:39;;;;;;;12.88;7.72;;;;;;;10.41;48.93;100096.50;5033934;28;20038;-73
2022/05/01 00:53:05;;;;;;;13.80;8.00;;;;;;;10.32;49.46;100086.41;5034071;28;20101;-73
2022/05/01 00:55:35;;;;;;;12.10;8.05;;;;;;;10.30;49.40;100088.25;5033695;28;20497;-72
2022/05/01 00:58:03;;;;;;;11.77;7.95;;;;;;;10.33;49.43;100095.94;5033877;28;20025;-73
2022/05/01 01:00:29;;;;;;;11.63;8.20;;;;;;;10.27;49.63;100084.91;5033458;28;20064;-73
2022/05/01 01:02:54;;;;;;;16.58;8.02;;;;;;;10.33;49.52;100089.91;5033994;28;20451;-72
2022/05/01 01:05:20;;;;;;;12.80;7.88;;;;;;;10.30;49.74;100097.81;5033592;28;20381;-73
2022/05/01 01:07:46;;;;;;;13.45;8.38;;;;;;;10.31;49.69;100102.09;5033523;28;20100;-73
2022/05/01 01:10:11;;;;;;;12.88;8.32;;;;;;;10.17;49.77;100079.19;5033670;28;20029;-73
2022/05/01 01:12:56;;;;;;;13.13;8.13;;;;;;;10.20;50.22;100087.72;5033382;28;20129;-72
2022/05/01 01:15:28;;;;;;;12.75;8.10;;;;;;;10.25;49.88;100092.78;5033516;28;20029;-73
2022/05/01 01:17:54;;;;;;;13.30;8.52;;;;;;;10.24;50.11;100104.09;5033565;28;20025;-73
2022/05/01 01:20:22;;;;;;;10.30;7.93;;;;;;;10.24;49.88;100094.53;5033728;28;20037;-72
2022/05/01 01:22:49;;;;;;;13.70;8.30;;;;;;;10.18;49.87;100083.47;5033431;28;20033;-73
2022/05/01 01:25:18;;;;;;;10.77;8.35;;;;;;;10.23;49.88;100092.78;5033304;28;20116;-72
2022/05/01 01:27:44;;;;;;;14.45;8.02;;;;;;;10.16;50.18;100082.69;5032929;28;20428;-72
2022/05/01 01:32:55;;;;;;;10.30;7.55;;;;;;;10.23;49.15;100086.75;5033240;28;20080;-73
2022/05/01 01:35:23;;;;;;;14.30;8.68;;;;;;;10.24;49.31;100096.28;5033249;28;20029;-73
2022/05/01 01:37:51;;;;;;;11.00;7.65;;;;;;;10.21;49.10;100086.81;5033102;28;20035;-72
2022/05/01 01:40:27;;;;;;;10.65;7.43;;;;;;;10.22;49.19;100082.44;5033283;28;20025;-73
2022/05/01 01:42:55;;;;;;;13.80;8.05;;;;;;;10.17;49.00;100079.19;5033180;28;20108;-73
2022/05/01 01:45:21;;;;;;;11.70;7.60;;;;;;;10.24;48.70;100083.25;5032974;28;20136;-73
2022/05/01 01:47:49;;;;;;;11.52;8.23;;;;;;;10.24;48.85;100093.66;5031711;28;20108;-72
2022/05/01 01:50:17;;;;;;;12.38;9.02;;;;;;;10.25;48.61;100087.59;5032808;28;20033;-72
2022/05/01 01:52:46;;;;;;;15.32;8.77;;;;;;;10.26;48.55;100096.25;5032528;28;20148;-73
2022/05/01 01:55:15;;;;;;;12.30;8.18;;;;;;;10.17;48.89;100087.84;5032878;28;20029;-73
2022/05/01 01:57:41;;;;;;;13.65;9.02;;;;;;;10.21;48.78;100076.41;5032632;28;20025;-73
2022/05/01 02:00:07;;;;;;;11.13;7.97;;;;;;;10.22;48.84;100093.72;5032725;28;20028;-72
2022/05/01 02:02:32;;;;;;;11.68;8.68;;;;;;;10.18;48.73;100080.88;5032367;28;20500;-73
2022/05/01 02:04:58;;;;;;;13.48;9.57;;;;;;;10.19;49.03;100086.00;5032479;28;20026;-73
2022/05/01 02:07:23;;;;;;;17.95;9.68;;;;;;;10.21;49.12;100083.38;5032623;28;20025;-73
2022/05/01 02:09:48;;;;;;;14.25;8.77;;;;;;;10.11;49.18;100072.47;5032435;28;20022;-73
2022/05/01 02:12:14;;;;;;;14.10;8.98;;;;;;;10.14;49.50;100089.69;5032513;28;20097;-73
2022/05/01 02:14:39;;;;;;;14.13;9.00;;;;;;;10.12;49.66;100083.72;5032195;28;20037;-73
2022/05/01 02:17:04;;;;;;;14.05;9.00;;;;;;;9.99;49.93;100062.50;5032305;28;20386;-73
2022/05/01 02:19:30;;;;;;;15.70;8.90;;;;;;;10.03;50.00;100076.22;5032048;28;20063;-72
2022/05/01 02:21:56;;;;;;;14.05;9.57;;;;;;;9.99;50.22;100078.13;5032472;28;20414;-73
2022/05/01 02:24:23;;;;;;;13.93;8.90;;;;;;;9.98;50.22;100086.81;5032392;28;20481;-72
2022/05/01 02:26:49;;;;;;;14.50;9.02;;;;;;;9.96;50.30;100075.63;5032050;28;20026;-73
2022/05/01 02:29:15;;;;;;;14.30;9.65;;;;;;;9.87;50.37;100069.03;5032172;28;20037;-73
2022/05/01 02:31:43;;;;;;;12.40;8.85;;;;;;;9.87;50.88;100073.38;5031895;28;20100;-73
2022/05/01 02:34:10;;;;;;;16.98;8.82;;;;;;;9.84;50.78;100074.31;5032039;28;20075;-73
2022/05/01 02:36:35;;;;;;;15.55;9.35;;;;;;;9.80;51.17;100069.28;5031822;28;20029;-72
2022/05/01 02:39:01;;;;;;;14.95;8.88;;;;;;;9.75;51.17;100072.06;5032198;28;20531;-73
2022/05/01 02:41:28;;;;;;;12.90;9.20;;;;;;;9.72;51.21;100059.16;5031767;28;20650;-73
2022/05/01 02:43:54;;;;;;;16.30;9.45;;;;;;;9.71;51.62;100073.94;5032109;28;20025;-72
2022/05/01 02:46:19;;;;;;;12.25;8.75;;;;;;;9.67;51.84;100072.34;5031829;28;20132;-72
2022/05/01 02:48:45;;;;;;;14.80;9.20;;;;;;;9.63;51.69;100068.16;5031706;28;20057;-73
2022/05/01 02:51:11;;;;;;;15.40;9.50;;;;;;;9.64;51.98;100080.25;5032103;28;20661;-72
2022/05/01 02:53:37;;;;;;;13.30;9.00;;;;;;;9.61;51.94;100069.13;5031848;28;20056;-73
2022/05/01 02:56:02;;;;;;;15.48;9.20;;;;;;;9.60;51.66;100070.00;5032137;28;20037;-72
2022/05/01 02:58:30;;;;;;;18.42;9.23;;;;;;;9.55;52.15;100064.13;5031715;28;20033;-72
2022/05/01 03:00:56;;;;;;;12.93;8.73;;;;;;;9.54;52.34;100078.03;5031896;28;20026;-73
2022/05/01 03:03:23;;;;;;;15.52;9.13;;;;;;;9.48;52.52;100071.28;5031735;28;20029;-73
2022/05/01 03:05:51;;;;;;;14.27;8.82;;;;;;;9.46;52.59;100076.56;5031653;28;20029;-73
2022/05/01 03:08:17;;;;;;;14.18;9.27;;;;;;;9.36;53.01;100061.34;5031839;28;20593;-73
2022/05/01 03:10:43;;;;;;;14.70;9.20;;;;;;;9.34;53.04;100063.13;5031639;28;20033;-73
2022/05/01 03:13:09;;;;;;;13.30;9.90;;;;;;;9.31;53.16;100056.28;5031655;28;20030;-73
2022/05/01 03:15:34;;;;;;;20.17;10.10;;;;;;;9.33;53.07;100064.88;5031444;28;20033;-72
2022/05/01 03:23:28;;;;;;;16.05;9.77;;;;;;;9.13;53.81;100057.78;5031622;28;20037;-73
2022/05/01 03:25:53;;;;;;;14.75;10.00;;;;;;;9.19;53.76;100061.94;5031312;28;20034;-73
2022/05/01 03:28:18;;;;;;;17.23;11.60;;;;;;;9.25;53.96;100082.50;5031498;28;20036;-73
2022/05/01 03:30:44;;;;;;;18.30;11.15;;;;;;;9.16;54.39;100075.88;5031512;28;20037;-72
2022/05/01 03:33:10;;;;;;;15.07;9.88;;;;;;;9.20;54.25;100079.22;5031425;28;20033;-73
2022/05/01 03:35:36;;;;;;;18.27;10.05;;;;;;;9.13;54.38;100075.97;5031338;28;20029;-73
2022/05/01 03:38:06;;;;;;;17.38;10.48;;;;;;;9.15;54.62;100074.19;5031500;28;20383;-73
2022/05/01 03:40:35;;;;;;;15.38;9.85;;;;;;;9.09;54.93;100071.75;5031236;28;20083;-73
2022/05/01 03:43:04;;;;;;;15.13;9.75;;;;;;;9.08;54.91;100072.69;5031366;28;20111;-73
2022/05/01 03:45:29;;;;;;;13.55;9.77;;;;;;;9.09;55.56;100079.56;5031427;28;20485;-73
2022/05/01 03:47:54;;;;;;;13.98;9.60;;;;;;;9.03;55.53;100077.19;5031136;28;20025;-73
2022/05/01 03:50:20;;;;;;;16.50;9.85;;;;;;;9.05;55.50;100071.91;5031254;28;20060;-73
2022/05/01 03:52:45;;;;;;;17.88;10.27;;;;;;;9.13;55.29;100081.16;5031089;28;20128;-73
2022/05/01 03:55:11;;;;;;;17.10;10.93;;;;;;;9.10;55.57;100080.41;5031320;28;20109;-73
2022/05/01 03:57:37;;;;;;;17.15;9.15;;;;;;;9.13;55.64;100075.13;5031041;28;20149;-73
2022/05/01 04:00:05;;;;;;;13.05;9.95;;;;;;;9.10;55.63;100077.81;5031804;28;20524;-73
2022/05/01 04:02:30;;;;;;;19.40;10.60;;;;;;;9.15;55.43;100084.56;5031470;28;20021;-73
2022/05/01 04:04:57;;;;;;;13.48;10.23;;;;;;;9.16;55.38;100083.66;5031112;28;20038;-73
2022/05/01 04:07:23;;;;;;;14.88;11.07;;;;;;;9.16;55.59;100073.25;5013309;28;20734;-72
2022/05/01 04:09:48;;;;;;;17.45;10.45;;;;;;;9.25;55.71;100082.50;5031562;28;20120;-73
2022/05/01 04:12:14;;;;;;;13.38;9.52;;;;;;;9.23;55.67;100069.56;5034604;28;20358;-72
2022/05/01 04:14:39;;;;;;;17.58;10.68;;;;;;;9.32;55.47;100067.56;5034591;28;20036;-72
2022/05/01 04:17:05;;;;;;;15.98;10.07;;;;;;;9.41;55.34;100075.03;5034438;28;20120;-73
2022/05/01 04:19:31;;;;;;;17.10;10.48;;;;;;;9.52;55.04;100072.88;5034636;28;20033;-73
2022/05/01 04:21:56;;;;;;;13.90;10.23;;;;;;;9.59;54.82;100074.38;5034350;28;20123;-73
2022/05/01 04:24:23;;;;;;;18.95;11.13;;;;;;;9.83;54.27;100077.84;5034419;28;20485;-72
2022/05/01 04:26:48;;;;;;;14.38;10.07;;;;;;;9.98;53.70;100064.25;5033989;28;20048;-73
2022/05/01 04:31:57;;;;;;;15.85;10.45;;;;;;;10.84;51.75;100078.31;5034042;28;20040;-73
2022/05/01 04:34:23;;;;;;;17.05;10.43;;;;;;;11.48;49.67;100075.59;5034521;28;20025;-72
2022/05/01 04:36:48;;;;;;;12.57;9.00;;;;;;;11.54;49.08;100080.53;5034014;28;20512;-73
2022/05/01 04:39:13;;;;;;;18.90;11.13;;;;;;;11.53;49.16;100078.84;5034068;28;20036;-72
2022/05/01 04:41:39;;;;;;;15.32;9.90;;;;;;;11.81;48.76;100075.88;5034138;28;20475;-73
2022/05/01 04:44:04;;;;;;;13.35;10.23;;;;;;;12.20;46.76;100075.00;5034305;28;20029;-72
2022/05/01 04:46:30;;;;;;;16.25;10.43;;;;;;;12.58;45.81;100069.72;5033743;28;20053;-72
2022/05/01 04:48:56;;;;;;;14.65;10.43;;;;;;;13.12;45.19;100076.63;5033872;28;20057;-73
2022/05/01 04:51:22;;;;;;;15.70;10.55;;;;;;;13.78;43.35;100082.88;5033908;28;20112;-73
2022/05/01 04:53:47;;;;;;;15.25;9.98;;;;;;;14.34;41.75;100058.84;5033554;28;20043;-73
2022/05/01 04:58:56;;;;;;;16.15;10.57;;;;;;;14.55;40.33;100063.88;5033610;28;20087;-73
2022/05/01 05:01:21;;;;;;;13.88;10.77;;;;;;;14.58;40.44;100080.28;5033808;28;20026;-72
2022/05/01 05:03:47;;;;;;;16.65;10.77;;;;;;;14.80;40.46;100068.56;5033582;28;20037;-73
2022/05/01 05:06:12;;;;;;;14.15;9.52;;;;;;;15.15;39.04;100075.22;5033642;28;20038;-73
2022/05/01 05:11:21;;;;;;;13.60;9.95;;;;;;;15.66;38.08;100080.09;5033733;28;20539;-73
2022/05/01 05:13:47;;;;;;;14.68;9.45;;;;;;;16.48;37.02;100070.63;5033562;28;20021;-73
2022/05/01 05:16:15;;;;;;;12.95;8.40;;;;;;;17.61;34.91;100073.59;5033455;28;20030;-73
2022/05/01 05:18:40;;;;;;;12.10;9.13;;;;;;;18.01;33.17;100078.75;5033167;28;20048;-73
2022/05/01 05:21:07;;;;;;;12.32;8.50;;;;;;;17.37;34.38;100078.78;5033514;28;20108;-73
2022/05/01 05:23:33;;;;;;;13.85;8.40;;;;;;;16.84;34.60;100077.91;5033528;28;20032;-72
2022/05/01 05:25:58;;;;;;;15.05;9.77;;;;;;;16.74;35.23;100080.31;5033087;28;20025;-73
2022/05/01 05:28:23;;;;;;;14.90;8.32;;;;;;;16.86;34.90;100081.31;5033308;28;20112;-73
2022/05/01 05:30:49;;;;;;;16.58;10.30;;;;;;;17.15;34.73;100084.63;5032961;28;20025;-72
2022/05/01 05:33:18;;;;;;;15.25;9.88;;;;;;;17.36;33.74;100075.31;5033154;28;20060;-72
2022/05/01 05:35:44;;;;;;;13.25;9.95;;;;;;;18.37;33.49;100089.34;5033178;28;20465;-73
2022/05/01 05:38:10;;;;;;;13.23;8.82;;;;;;;18.79;31.50;100081.03;5033297;28;20029;-72
2022/05/01 05:40:36;;;;;;;12.25;8.63;;;;;;;18.66;31.58;100092.47;5033486;28;20544;-73
2022/05/01 05:43:01;;;;;;;15.60;8.77;;;;;;;18.58;31.87;100091.34;5032853;28;20112;-72
2022/05/01 05:45:27;;;;;;;11.38;8.10;;;;;;;18.17;32.44;100093.38;5033059;28;20124;-72
2022/05/01 05:47:53;;;;;;;11.98;8.38;;;;;;;17.99;32.79;100101.72;5032457;28;20017;-73
2022/05/01 05:50:19;;;;;;;13.98;8.68;;;;;;;18.00;33.08;100093.75;5033077;28;20033;-73
2022/05/01 05:52:44;;;;;;;12.43;8.65;;;;;;;19.15;31.73;100095.94;5032791;28;20072;-72
2022/05/01 05:55:10;;;;;;;11.35;8.40;;;;;;;20.22;29.99;100098.25;5032841;28;20477;-72
2022/05/01 05:57:35;;;;;;;12.18;8.30;;;;;;;19.86;29.71;100102.00;5032788;28;20032;-73
2022/05/01 06:00:00;;;;;;;11.75;8.73;;;;;;;19.68;30.11;100094.53;5032487;28;20068;-73
2022/05/01 06:02:26;;;;;;;13.02;8.70;;;;;;;19.51;30.08;100096.75;5032609;28;20469;-72
2022/05/01 06:04:51;;;;;;;11.18;8.18;;;;;;;19.61;29.73;100098.59;5032509;28;20378;-73
2022/05/01 06:07:17;;;;;;;11.32;8.20;;;;;;;19.76;30.41;100101.00;5032695;28;20088;-72
2022/05/01 06:09:42;;;;;;;9.88;7.45;;;;;;;20.97;29.45;100088.69;5032370;28;20026;-72
2022/05/01 06:12:09;;;;;;;9.88;7.97;;;;;;;22.05;27.02;100100.66;5032523;28;20032;-73
2022/05/01 06:14:35;;;;;;;13.95;8.20;;;;;;;21.91;27.02;100088.59;5032528;28;20029;-73
2022/05/01 06:17:01;;;;;;;10.02;7.63;;;;;;;21.86;27.82;100101.41;5032045;28;20531;-73
2022/05/01 06:19:26;;;;;;;9.73;7.78;;;;;;;21.96;27.34;100104.13;5032545;28;20029;-73
2022/05/01 06:21:52;;;;;;;12.18;8.20;;;;;;;22.24;27.42;100107.03;5032286;28;20017;-73
2022/05/01 06:24:17;;;;;;;10.23;7.72;;;;;;;23.55;26.17;100100.38;5032475;28;20408;-73
2022/05/01 06:26:42;;;;;;;11.45;7.95;;;;;;;24.99;24.08;100109.59;5032131;28;20500;-73
2022/05/01 06:29:08;;;;;;;8.77;7.13;;;;;;;25.83;23.26;100091.28;5032265;28;20040;-72
2022/05/01 06:31:37;;;;;;;13.63;7.40;;;;;;;26.74;22.14;100103.13;4997220;28;20124;-73
2022/05/01 06:34:04;;;;;;;12.82;8.55;;;;;;;28.05;20.46;100111.88;5031376;28;20059;-72
2022/05/01 06:36:29;;;;;;;11.07;8.43;;;;;;;28.35;19.91;100112.91;5031521;28;20017;-73
2022/05/01 06:38:55;;;;;;;10.43;8.52;;;;;;;27.41;19.71;100111.03;5031884;28;20036;-73
2022/05/01 06:41:20;;;;;;;11.05;7.80;;;;;;;26.15;21.16;100119.09;5032106;28;20465;-73
2022/05/01 06:43:46;;;;;;;11.82;8.63;;;;;;;26.55;21.31;100113.13;5031715;28;20098;-73
2022/05/01 06:46:11;;;;;;;10.10;8.27;;;;;;;28.22;20.25;100121.53;5031618;28;20045;-74
2022/05/01 06:48:36;;;;;;;12.50;9.18;;;;;;;29.24;18.83;100113.38;5032046;28;20033;-73
2022/05/01 06:51:02;;;;;;;11.82;9.40;;;;;;;30.57;17.44;100116.09;5031732;28;20029;-73
2022/05/01 06:53:27;;;;;;;10.65;8.35;;;;;;;32.18;16.40;100117.22;5031943;28;20022;-74
2022/05/01 06:55:55;;;;;;;11.18;8.25;;;;;;;33.02;15.83;100112.31;5031678;28;20041;-74
2022/05/01 06:58:21;;;;;;;11.45;8.57;;;;;;;34.12;14.76;100114.47;5031804;28;20030;-72
2022/05/01 07:00:46;;;;;;;11.52;9.00;;;;;;;35.12;14.67;100115.63;5013709;28;20040;-72
2022/05/01 07:03:12;;;;;;;10.57;8.18;;;;;;;36.29;13.84;100112.16;5031825;28;20021;-73
2022/05/01 07:05:37;;;;;;;11.10;9.20;;;;;;;36.58;12.88;100119.50;5031802;28;20381;-73
2022/05/01 07:08:02;;;;;;;11.38;9.20;;;;;;;36.55;12.98;100109.09;5031423;28;20409;-72
2022/05/01 07:10:28;;;;;;;12.48;8.55;;;;;;;35.34;13.55;100110.63;5031425;28;20117;-72
2022/05/01 07:12:53;;;;;;;12.18;8.93;;;;;;;35.56;13.44;100116.47;5031357;28;20053;-72
2022/05/01 07:15:19;;;;;;;11.80;9.05;;;;;;;35.32;13.78;100112.75;5031496;28;20453;-72
2022/05/01 07:17:44;;;;;;;11.73;8.77;;;;;;;36.21;12.97;100114.13;5031123;28;20496;-72
2022/05/01 07:20:10;;;;;;;12.50;9.25;;;;;;;36.21;13.19;100107.88;5031666;28;20113;-72
2022/05/01 07:22:35;;;;;;;14.85;8.98;;;;;;;36.96;12.82;100105.59;5031617;28;20040;-72
2022/05/01 07:25:01;;;;;;;10.57;8.93;;;;;;;38.14;12.33;100106.41;5031242;28;20404;-72
2022/05/01 07:27:26;;;;;;;11.90;8.80;;;;;;;38.73;11.82;100094.41;5031482;28;20384;-72
2022/05/01 07:29:52;;;;;;;11.05;9.30;;;;;;;37.36;12.27;100101.38;5031162;28;20079;-73
2022/05/01 07:32:17;;;;;;;11.85;9.80;;;;;;;36.86;12.94;100108.00;5031312;28;20033;-73
2022/05/01 07:34:43;;;;;;;11.68;9.35;;;;;;;37.85;12.03;100099.22;5031494;28;20030;-73
2022/05/01 07:37:08;;;;;;;12.07;8.93;;;;;;;38.52;11.67;100096.00;5031285;28;20695;-73
2022/05/01 07:39:33;;;;;;;10.82;8.93;;;;;;;39.08;11.49;100102.41;5031582;28;20029;-72
2022/05/01 07:41:59;;;;;;;12.32;8.27;;;;;;;39.49;11.44;100101.16;5031211;28;20108;-73
2022/05/01 07:44:25;;;;;;;10.70;8.60;;;;;;;37.70;11.60;100080.69;5031423;28;20025;-73
2022/05/01 07:46:51;;;;;;;11.48;9.70;;;;;;;33.82;13.93;100089.81;5034963;28;20056;-73
2022/05/01 07:49:17;;;;;;;11.13;9.23;;;;;;;33.08;15.14;100083.69;5035168;28;20022;-72
2022/05/01 07:51:43;;;;;;;13.43;9.15;;;;;;;32.09;15.60;100092.31;5035078;28;20025;-72
2022/05/01 07:54:08;;;;;;;11.90;9.10;;;;;;;32.79;15.38;100085.69;5034846;28;20532;-72
2022/05/01 07:56:35;;;;;;;11.30;8.45;;;;;;;34.00;14.81;100088.09;5034896;28;20124;-72
2022/05/01 07:59:00;;;;;;;12.07;8.82;;;;;;;34.69;14.30;100097.38;5034516;28;20024;-72
2022/05/01 08:01:27;;;;;;;14.60;9.80;;;;;;;35.82;13.89;100093.72;5034610;28;20037;-72
2022/05/01 08:06:36;;;;;;;11.25;8.45;;;;;;;38.16;12.33;100090.66;5034626;28;20040;-73
2022/05/01 08:09:03;;;;;;;11.32;8.50;;;;;;;38.73;11.63;100088.97;5028190;28;20025;-73
2022/05/01 08:11:28;;;;;;;10.73;8.45;;;;;;;38.71;11.58;100096.56;5027775;28;20040;-73
2022/05/01 08:13:53;;;;;;;10.48;9.02;;;;;;;38.71;11.87;100085.69;5018416;28;20022;-72
2022/05/01 08:16:20;;;;;;;11.30;9.27;;;;;;;38.96;11.50;100080.69;5015180;28;20029;-73
2022/05/01 08:21:32;;;;;;;9.50;8.05;;;;;;;32.70;15.80;100080.69;5034631;28;20139;-73
2022/05/01 08:23:58;;;;;;;12.68;9.07;;;;;;;30.25;17.49;100077.91;5016292;28;20492;-75
2022/05/01 08:26:24;;;;;;;11.27;8.43;;;;;;;28.68;19.57;100088.66;5020871;28;20099;-75
2022/05/01 08:28:54;;;;;;;10.32;8.85;;;;;;;27.13;20.74;100068.56;5014192;28;20109;-75
2022/05/01 08:31:19;;;;;;;11.55;9.25;;;;;;;25.93;21.91;100074.31;5014618;28;20026;-75
2022/05/01 08:33:44;;;;;;;13.50;9.10;;;;;;;25.21;22.65;100068.34;5014560;28;20079;-75
2022/05/01 08:36:10;;;;;;;11.35;9.40;;;;;;;24.73;23.80;100067.75;5014060;28;20389;-75
2022/05/01 08:38:39;;;;;;;12.93;9.60;;;;;;;24.23;24.90;100070.88;5014399;28;20026;-75
2022/05/01 08:41:06;;;;;;;14.77;9.38;;;;;;;23.82;25.66;100078.34;5013991;28;20064;-75
2022/05/01 08:43:32;;;;;;;13.63;9.93;;;;;;;23.46;25.71;100071.16;5027873;28;20021;-75
2022/05/01 08:46:36;;;;;;;11.82;9.25;;;;;;;22.96;26.31;100068.72;5033398;28;20046;-74
2022/05/01 08:49:07;;;;;;;12.45;9.43;;;;;;;22.36;27.60;100068.78;4933969;29;20484;-75
2022/05/01 08:51:35;;;;;;;12.23;10.10;;;;;;;22.11;27.62;100062.97;4934152;29;20393;-75
2022/05/01 08:54:05;;;;;;;11.38;8.93;;;;;;;21.91;28.14;100058.56;4933854;29;20050;-74
2022/05/01 08:56:34;;;;;;;11.95;9.18;;;;;;;21.73;28.16;100061.00;4933785;29;20102;-74
2022/05/01 08:59:09;;;;;;;14.55;8.80;;;;;;;21.19;27.89;100075.31;4933617;29;20043;-75
2022/05/01 09:01:35;;;;;;;9.35;7.55;;;;;;;20.94;27.12;100047.41;4934002;29;20028;-75
2022/05/01 09:04:02;;;;;;;9.95;7.35;;;;;;;20.98;27.34;100069.19;4933700;29;20151;-74
2022/05/01 09:06:28;;;;;;;11.02;8.60;;;;;;;20.51;27.58;100073.94;4933848;29;20160;-75
2022/05/01 09:08:54;;;;;;;12.02;8.90;;;;;;;20.16;28.41;100072.28;4933721;29;20039;-75
2022/05/01 09:14:04;;;;;;;13.35;9.13;;;;;;;19.82;29.57;100064.38;4933650;29;20038;-74
2022/05/01 09:16:30;;;;;;;13.38;9.40;;;;;;;19.90;30.02;100066.44;4929763;29;20124;-74
2022/05/01 09:18:55;;;;;;;14.77;8.80;;;;;;;19.75;28.95;100055.25;4914511;29;20119;-74
2022/05/01 09:21:20;;;;;;;9.77;8.27;;;;;;;19.84;28.58;100066.91;4914950;29;20048;-74
2022/05/01 09:23:48;;;;;;;14.32;9.00;;;;;;;19.80;29.32;100066.28;4914635;29;20453;-74
2022/05/01 09:26:18;;;;;;;11.20;8.32;;;;;;;19.91;29.52;100054.88;5001890;28;20510;-74
2022/05/01 09:29:01;;;;;;;;;;;;;;;19.90;28.92;100075.19;5013737;28;20026;-74
2022/05/01 09:31:43;;;;;;;10.40;7.60;;;;;;;19.65;29.45;100065.69;5013767;28;19913;-74
2022/05/01 09:34:28;;;;;;;9.95;7.75;;;;;;;19.65;29.21;100060.41;5013363;28;20129;-74
2022/05/01 09:36:55;;;;;;;9.80;7.22;;;;;;;19.55;29.99;100054.16;5012983;28;20025;-74
2022/05/01 09:39:23;;;;;;;10.82;8.45;;;;;;;19.60;30.22;100061.72;5012996;28;20025;-74
2022/05/01 09:41:49;;;;;;;12.65;7.65;;;;;;;19.62;29.02;100051.88;5013121;28;20058;-74
2022/05/01 09:44:16;;;;;;;9.20;7.30;;;;;;;19.62;29.47;100055.38;5013013;28;20037;-74
2022/05/01 09:46:46;;;;;;;11.48;7.90;;;;;;;19.60;29.32;100051.16;5012744;28;20133;-74
2022/05/01 09:49:16;;;;;;;10.40;7.30;;;;;;;19.63;29.74;100045.63;4995079;28;20026;-74
2022/05/01 09:51:56;;;;;;;10.73;7.60;;;;;;;19.77;29.20;100047.22;5012728;28;20021;-74
2022/05/01 09:54:24;;;;;;;8.93;7.45;;;;;;;19.66;28.92;100054.16;5013103;28;20536;-74
2022/05/01 09:56:54;;;;;;;11.23;7.82;;;;;;;19.48;28.88;100052.94;5012961;28;20109;-74
2022/05/01 09:59:21;;;;;;;11.15;7.78;;;;;;;19.36;29.94;100054.72;5012909;28;20029;-74
2022/05/01 10:02:03;;;;;;;10.88;7.82;;;;;;;19.29;30.78;100044.72;5012696;28;20034;-74
2022/05/01 10:04:37;;;;;;;10.68;7.47;;;;;;;19.43;29.93;100041.88;5013081;28;20776;-74
2022/05/01 10:07:05;;;;;;;10.32;7.40;;;;;;;19.42;28.94;100040.19;5012200;28;20523;-74
2022/05/01 10:09:35;;;;;;;11.05;7.75;;;;;;;19.33;29.46;100036.44;5012841;28;20373;-74
2022/05/01 10:12:07;;;;;;;;;;;;;;;19.34;29.26;100046.06;5012860;28;20121;-74
2022/05/01 10:14:33;;;;;;;8.98;5.78;;;;;;;19.54;28.35;100043.69;5012343;28;19909;-74
2022/05/01 10:17:00;;;;;;;10.77;6.93;;;;;;;19.57;29.12;100032.88;5020022;28;20033;-74
2022/05/01 10:19:25;;;;;;;18.45;6.82;;;;;;;19.52;27.92;100035.03;5017061;28;20505;-74
2022/05/01 10:21:56;;;;;;;7.55;5.45;;;;;;;19.63;27.11;100024.50;5012477;28;20037;-74
2022/05/01 10:24:22;;;;;;;7.40;5.63;;;;;;;19.84;27.29;100032.53;5012476;28;20030;-74
2022/05/01 10:27:42;;;;;;;9.25;6.93;;;;;;;19.74;28.31;100036.88;5012261;28;20535;-74
2022/05/01 10:33:16;;;;;;;11.68;7.30;;;;;;;19.66;28.92;100038.31;4971149;28;20101;-74
2022/05/01 10:35:47;;;;;;;10.05;7.47;;;;;;;19.66;29.08;100038.31;4971096;28;20035;-74
2022/05/01 10:38:31;;;;;;;13.48;7.70;;;;;;;19.66;27.82;100038.31;4970632;28;20039;-74
2022/05/01 10:40:59;;;;;;;10.20;7.38;;;;;;;19.67;28.33;100020.66;4970556;28;20047;-74
2022/05/01 10:43:36;;;;;;;12.95;7.85;;;;;;;19.66;27.98;100022.47;4970767;28;20031;-75
2022/05/01 10:46:16;;;;;;;11.85;7.38;;;;;;;19.65;27.39;99999.63;4995166;28;20053;-74
2022/05/01 10:48:42;;;;;;;10.77;7.88;;;;;;;19.78;27.56;100009.25;5009710;28;20046;-75
2022/05/01 10:51:38;;;;;;;10.73;7.68;;;;;;;19.71;27.83;100016.81;5009353;28;20032;-74
2022/05/01 10:54:15;;;;;;;9.38;6.88;;;;;;;19.59;28.21;100004.53;5009270;28;20026;-74
2022/05/01 10:56:44;;;;;;;12.32;7.93;;;;;;;19.64;29.14;99999.78;5009561;28;20041;-74
2022/05/01 10:59:32;;;;;;;10.82;7.82;;;;;;;19.65;28.72;100006.72;5009209;28;20045;-74
2022/05/01 11:02:00;;;;;;;10.70;7.55;;;;;;;19.67;28.65;99996.88;5009477;28;20445;-74
2022/05/01 11:04:29;;;;;;;17.13;8.27;;;;;;;19.60;28.15;99999.13;5009482;28;20026;-74
2022/05/01 11:06:55;;;;;;;12.07;7.78;;;;;;;19.52;28.93;99993.63;5027472;28;20080;-74
2022/05/01 11:09:22;;;;;;;9.63;7.72;;;;;;;19.59;29.42;100013.31;5031786;28;20040;-74
2022/05/01 11:11:58;;;;;;;13.18;8.27;;;;;;;19.47;29.09;99992.28;5031684;28;20053;-74
2022/05/01 11:14:59;;;;;;;15.60;8.95;;;;;;;19.42;28.92;99979.41;5031790;28;20032;-74
2022/05/01 11:17:37;;;;;;;11.23;7.78;;;;;;;19.48;29.36;99994.81;5031678;28;20025;-74
2022/05/01 11:20:10;;;;;;;9.70;7.78;;;;;;;19.54;29.30;99988.19;5034408;28;20029;-74
2022/05/01 11:22:36;;;;;;;11.27;8.77;;;;;;;19.63;28.98;99983.06;5035783;28;20053;-74
2022/05/01 11:25:01;;;;;;;10.50;7.65;;;;;;;19.69;29.17;99989.69;5035424;28;20056;-73
2022/05/01 11:27:45;;;;;;;8.73;7.38;;;;;;;19.72;28.99;99978.00;5035296;28;20033;-73
2022/05/01 11:30:12;;;;;;;10.63;8.27;;;;;;;19.83;28.62;99985.94;5035357;28;20021;-74
2022/05/01 11:32:45;;;;;;;11.88;7.45;;;;;;;19.79;29.15;99989.78;5035482;28;20075;-73
2022/05/01 11:35:11;;;;;;;9.93;7.43;;;;;;;19.89;28.99;99972.25;5033886;28;20397;-74
2022/05/01 11:37:58;;;;;;;11.77;7.90;;;;;;;20.02;29.14;99978.22;5035230;28;20026;-74
2022/05/01 11:40:28;;;;;;;9.73;8.23;;;;;;;20.17;29.87;99968.19;5035162;28;20017;-73
2022/05/01 11:43:15;;;;;;;13.68;9.20;;;;;;;20.25;29.13;99967.56;5035262;28;20026;-74
2022/05/01 11:45:40;;;;;;;12.32;9.27;;;;;;;20.21;28.36;99961.69;5025569;28;20540;-74
2022/05/01 11:48:17;;;;;;;8.65;7.22;;;;;;;20.04;29.30;99944.53;5014913;28;20034;-74
2022/05/01 11:50:44;;;;;;;12.88;7.97;;;;;;;20.11;28.76;99961.59;5015298;28;20505;-74
2022/05/01 11:53:19;;;;;;;11.80;8.15;;;;;;;20.20;28.50;99967.94;5015118;28;20068;-74
2022/05/01 12:04:20;;;;;;;8.70;6.70;;;;;;;20.03;28.95;99952.59;5015047;28;20044;-74